Time;durP1;ratioP1;P1;durP2;ratioP2;P2;SDS_P1;SDS_P2;PMS_P1;PMS_P2;Temp;Humidity;BMP_temperature;BMP_pressure;BME280_temperature;BME280_humidity;BME280_pressure;Samples;Min_cycle;Max_cycle;Signal;HPM_P1;HPM_P2
2023/12/16 19:02:14;;;;;;;4.23;1.30;;;11.20;99.90;;;;;;5068818;27;20553;-77
2023/12/16 19:04:39;;;;;;;3.70;1.20;;;11.20;99.90;;;;;;5048249;28;20231;-76
2023/12/16 19:07:05;;;;;;;0.43;0.30;;;11.30;99.90;;;;;;5058032;28;20523;-77
2023/12/16 19:09:34;;;;;;;3.47;1.57;;;11.30;99.90;;;;;;5050417;28;20173;-76
2023/12/16 19:12:04;;;;;;;2.23;0.93;;;11.30;99.90;;;;;;5056095;28;20171;-74
2023/12/16 19:14:30;;;;;;;0.83;0.30;;;11.30;99.90;;;;;;5051128;28;20173;-78
2023/12/16 19:16:56;;;;;;;1.93;0.97;;;11.30;99.90;;;;;;5048656;28;20176;-78
2023/12/16 19:19:22;;;;;;;0.90;0.60;;;11.30;99.90;;;;;;5054885;28;20165;-76
2023/12/16 19:21:47;;;;;;;1.00;0.53;;;11.30;99.90;;;;;;5048145;28;20204;-76
2023/12/16 19:24:13;;;;;;;0.60;0.50;;;11.30;99.90;;;;;;5054357;28;20192;-77
2023/12/16 19:26:39;;;;;;;1.23;0.50;;;11.30;99.90;;;;;;5048500;28;20188;-78
2023/12/16 19:29:05;;;;;;;0.70;0.50;;;11.30;99.90;;;;;;5049060;28;20166;-77
2023/12/16 19:31:30;;;;;;;3.37;1.53;;;11.40;99.90;;;;;;5048873;28;20181;-74
2023/12/16 19:33:56;;;;;;;52.07;22.67;;;11.40;99.90;;;;;;5048851;28;20264;-75
2023/12/16 19:36:22;;;;;;;2.87;1.40;;;11.40;99.90;;;;;;5048402;28;20704;-78
2023/12/16 19:38:47;;;;;;;3.50;1.43;;;11.40;99.90;;;;;;5047215;28;20640;-77
2023/12/16 19:41:13;;;;;;;0.93;0.60;;;11.40;99.90;;;;;;5048115;28;20213;-76
2023/12/16 19:43:39;;;;;;;0.77;0.40;;;11.40;99.90;;;;;;5047998;28;20254;-76
2023/12/16 19:46:04;;;;;;;1.10;0.60;;;11.40;99.90;;;;;;5047421;28;20644;-77
2023/12/16 19:48:30;;;;;;;6.90;2.50;;;11.40;99.90;;;;;;5050211;28;20161;-76
2023/12/16 19:50:56;;;;;;;1.30;0.63;;;11.40;99.90;;;;;;5041741;28;20647;-79
2023/12/16 19:53:21;;;;;;;0.40;0.20;;;11.40;99.90;;;;;;5053153;28;20224;-76
2023/12/16 19:55:47;;;;;;;3.83;2.07;;;11.30;99.90;;;;;;5055640;28;20695;-75
2023/12/16 19:58:13;;;;;;;5.43;3.17;;;11.40;99.90;;;;;;5051141;28;20628;-78
2023/12/16 20:00:40;;;;;;;1.80;1.03;;;11.40;99.90;;;;;;5052888;28;20221;-77
2023/12/16 20:03:07;;;;;;;0.90;0.60;;;11.40;99.90;;;;;;5061078;28;20169;-77
2023/12/16 20:05:35;;;;;;;3.57;1.23;;;11.50;99.90;;;;;;5057696;28;20177;-77
2023/12/16 20:08:01;;;;;;;3.53;1.40;;;11.40;99.90;;;;;;5054434;28;20583;-77
2023/12/16 20:10:26;;;;;;;3.80;0.77;;;11.40;99.90;;;;;;5058937;28;20154;-77
2023/12/16 20:12:56;;;;;;;0.77;0.43;;;11.40;99.90;;;;;;5054202;28;20605;-79
2023/12/16 20:15:22;;;;;;;5.00;3.27;;;11.40;99.90;;;;;;5039360;28;20165;-75
2023/12/16 20:17:48;;;;;;;4.07;1.60;;;11.30;99.90;;;;;;5052855;28;20174;-79
2023/12/16 20:20:14;;;;;;;1.93;0.97;;;11.40;99.90;;;;;;5048927;28;20240;-78
2023/12/16 20:22:39;;;;;;;2.57;1.17;;;11.30;99.90;;;;;;5039781;28;20173;-79
2023/12/16 20:25:07;;;;;;;1.07;0.70;;;11.20;99.90;;;;;;5036593;28;20174;-79
2023/12/16 20:27:36;;;;;;;2.17;0.60;;;11.20;99.90;;;;;;5037055;28;20243;-80
2023/12/16 20:30:02;;;;;;;0.93;0.70;;;11.30;99.90;;;;;;5036460;28;20182;-78
2023/12/16 20:32:27;;;;;;;1.80;0.67;;;11.20;99.90;;;;;;5045769;28;20178;-78
2023/12/16 20:34:54;;;;;;;1.53;0.80;;;11.10;99.90;;;;;;5044473;28;20213;-76
2023/12/16 20:37:23;;;;;;;4.77;3.13;;;11.10;99.90;;;;;;5034936;28;20175;-75
2023/12/16 20:42:33;;;;;;;1.67;0.93;;;11.10;99.90;;;;;;5045694;28;20185;-75
2023/12/16 20:44:59;;;;;;;1.83;0.80;;;11.10;99.90;;;;;;5014571;28;20174;-77
2023/12/16 20:47:24;;;;;;;0.70;0.50;;;11.10;99.90;;;;;;5015063;28;20246;-77
2023/12/16 20:49:50;;;;;;;2.43;0.70;;;11.10;99.90;;;;;;5035304;28;20174;-76
2023/12/16 20:52:16;;;;;;;1.30;0.80;;;11.10;99.90;;;;;;5031523;28;20525;-77
2023/12/16 20:54:41;;;;;;;1.60;0.90;;;11.10;99.90;;;;;;5033271;28;20489;-77
2023/12/16 20:57:07;;;;;;;1.07;0.80;;;11.10;99.90;;;;;;5032728;28;20261;-75
2023/12/16 20:59:33;;;;;;;1.60;1.07;;;11.20;99.90;;;;;;5031934;28;20282;-76
2023/12/16 21:02:04;;;;;;;2.60;0.90;;;11.30;99.90;;;;;;5052032;28;20274;-78
2023/12/16 21:04:30;;;;;;;1.43;1.00;;;11.10;99.90;;;;;;5054493;28;20208;-77
2023/12/16 21:06:56;;;;;;;1.80;0.93;;;11.10;99.90;;;;;;5054609;28;20184;-78
2023/12/16 21:09:22;;;;;;;2.57;0.87;;;11.10;99.90;;;;;;5052379;28;20184;-77
2023/12/16 21:11:47;;;;;;;0.70;0.70;;;11.20;99.90;;;;;;5052814;28;20182;-78
2023/12/16 21:14:13;;;;;;;1.40;0.90;;;11.20;99.90;;;;;;5052403;28;20632;-76
2023/12/16 21:16:39;;;;;;;1.00;0.90;;;8.00;99.90;;;;;;5055078;28;20169;-76
2023/12/16 21:19:05;;;;;;;1.30;0.90;;;11.20;99.90;;;;;;5057449;28;20647;-78
2023/12/16 21:21:31;;;;;;;0.90;0.77;;;11.10;99.90;;;;;;5054379;28;20236;-76
2023/12/16 21:23:57;;;;;;;1.50;0.97;;;11.20;99.90;;;;;;5047490;28;20636;-75
2023/12/16 21:26:22;;;;;;;0.90;0.83;;;11.20;99.90;;;;;;5044441;28;20539;-75
2023/12/16 21:28:48;;;;;;;2.40;0.80;;;11.20;99.90;;;;;;5055494;28;20266;-76
2023/12/16 21:31:14;;;;;;;1.10;0.80;;;11.20;99.90;;;;;;5050936;28;20186;-79
2023/12/16 21:33:39;;;;;;;1.10;0.70;;;11.20;99.90;;;;;;5052135;28;20169;-76
2023/12/16 21:36:05;;;;;;;1.63;0.90;;;11.00;99.90;;;;;;5052222;28;20201;-77
2023/12/16 21:38:31;;;;;;;1.73;0.90;;;;;;;;;;5049651;28;20212;-77
2023/12/16 21:40:57;;;;;;;1.90;1.40;;;11.20;99.90;;;;;;5048888;28;20225;-77
2023/12/16 21:43:25;;;;;;;1.20;0.97;;;11.30;99.90;;;;;;5042519;28;20185;-77
2023/12/16 21:45:51;;;;;;;1.00;0.90;;;11.20;99.90;;;;;;5052429;28;20177;-75
2023/12/16 21:48:16;;;;;;;0.87;0.77;;;11.00;99.90;;;;;;5051529;28;20173;-76
2023/12/16 21:50:42;;;;;;;1.83;0.80;;;11.10;99.90;;;;;;5051678;28;20176;-75
2023/12/16 21:53:07;;;;;;;1.33;0.93;;;11.20;99.90;;;;;;5044578;28;20196;-78
2023/12/16 21:55:33;;;;;;;0.97;0.80;;;11.20;99.90;;;;;;5035811;28;20174;-77
2023/12/16 21:57:59;;;;;;;2.30;0.90;;;11.00;99.90;;;;;;5030033;28;20177;-78
2023/12/16 22:00:25;;;;;;;3.80;1.00;;;;;;;;;;5030795;28;20261;-79
2023/12/16 22:02:51;;;;;;;1.47;0.90;;;11.20;99.90;;;;;;5032076;28;20185;-77
2023/12/16 22:05:17;;;;;;;1.47;0.80;;;11.10;99.90;;;;;;5030251;28;20181;-78
2023/12/16 22:07:42;;;;;;;1.30;0.80;;;11.20;99.90;;;;;;5031721;28;20166;-79
2023/12/16 22:10:10;;;;;;;1.77;0.93;;;11.20;99.90;;;;;;5035484;28;20677;-79
2023/12/16 22:12:35;;;;;;;1.70;1.10;;;11.30;99.90;;;;;;5041342;28;20178;-78
2023/12/16 22:15:01;;;;;;;1.27;1.00;;;11.10;99.90;;;;;;5030646;28;20204;-77
2023/12/16 22:17:27;;;;;;;1.33;1.10;;;11.10;99.90;;;;;;5016317;28;20182;-77
2023/12/16 22:19:55;;;;;;;2.20;1.40;;;11.10;99.90;;;;;;5039001;28;20215;-80
2023/12/16 22:22:21;;;;;;;1.37;1.27;;;11.10;99.90;;;;;;5035336;28;20189;-79
2023/12/16 22:24:48;;;;;;;1.87;1.30;;;11.10;99.90;;;;;;5031764;28;20181;-78
2023/12/16 22:27:14;;;;;;;2.63;1.40;;;11.10;99.90;;;;;;5047084;28;20201;-79
2023/12/16 22:29:39;;;;;;;1.80;1.50;;;11.10;99.90;;;;;;5031831;28;20656;-77
2023/12/16 22:32:06;;;;;;;1.77;1.57;;;11.00;99.90;;;;;;5031217;28;20595;-77
2023/12/16 22:34:31;;;;;;;1.80;1.60;;;11.10;99.90;;;;;;5030598;28;20204;-78
2023/12/16 22:36:57;;;;;;;1.97;1.77;;;10.90;99.90;;;;;;5030689;28;20657;-78
2023/12/16 22:39:23;;;;;;;2.07;1.80;;;11.00;99.90;;;;;;5031527;28;20227;-78
2023/12/16 22:41:48;;;;;;;5.20;2.73;;;11.10;99.90;;;;;;5030487;28;20639;-76
2023/12/16 22:44:14;;;;;;;2.93;1.83;;;11.00;99.90;;;;;;5031288;28;20178;-78
2023/12/16 22:46:40;;;;;;;1.97;1.60;;;11.00;99.90;;;;;;5029785;28;20641;-79
2023/12/16 22:49:05;;;;;;;3.00;2.07;;;11.00;99.90;;;;;;5031378;28;20173;-80
2023/12/16 22:51:32;;;;;;;6.30;3.70;;;10.90;99.90;;;;;;5049391;28;20181;-78
2023/12/16 22:53:57;;;;;;;2.80;1.80;;;11.00;99.90;;;;;;5058354;28;20161;-78
2023/12/16 22:56:26;;;;;;;2.17;1.70;;;;;;;;;;5070717;28;20189;-79
2023/12/16 22:58:52;;;;;;;2.03;1.83;;;11.00;99.90;;;;;;5067764;28;20188;-79
2023/12/16 23:01:18;;;;;;;4.77;1.73;;;10.90;99.90;;;;;;5065846;28;20241;-79
2023/12/16 23:03:44;;;;;;;2.67;1.80;;;10.90;99.90;;;;;;5057478;28;20165;-78
2023/12/16 23:06:10;;;;;;;2.03;1.40;;;11.00;99.90;;;;;;5043552;28;20181;-78
2023/12/16 23:08:37;;;;;;;2.27;1.50;;;10.90;99.90;;;;;;5044427;28;20180;-77
2023/12/16 23:11:03;;;;;;;1.83;1.47;;;10.90;99.90;;;;;;5050273;28;20169;-76
